createdAt,value
2019-05-02T00:02:03.460Z,75.00
2019-05-02T00:04:33.335Z,74.50
2019-05-02T00:07:06.756Z,74.00
2019-05-02T00:09:37.430Z,74.50
2019-05-02T00:12:11.818Z,74.80
2019-05-02T00:14:42.683Z,74.80
2019-05-02T00:17:13.101Z,75.00
2019-05-02T00:19:49.401Z,75.50
2019-05-02T00:22:17.474Z,75.70
2019-05-02T00:24:48.535Z,76.10
2019-05-02T00:27:18.555Z,76.20
2019-05-02T00:29:48.562Z,76.40
2019-05-02T00:32:22.489Z,76.60
2019-05-02T00:34:50.653Z,76.90
2019-05-02T00:37:24.716Z,77.40
2019-05-02T00:39:52.547Z,77.20
2019-05-02T00:42:23.961Z,77.30
2019-05-02T00:44:54.332Z,77.30
2019-05-02T00:47:34.842Z,77.90
2019-05-02T00:50:11.396Z,78.20
2019-05-02T00:52:39.378Z,78.40
2019-05-02T00:55:11.186Z,78.40
2019-05-02T00:57:41.352Z,78.30
2019-05-02T01:00:13.401Z,78.60
2019-05-02T01:02:47.784Z,78.40
2019-05-02T01:05:17.786Z,78.50
2019-05-02T01:07:47.741Z,78.50
2019-05-02T01:10:21.302Z,78.20
2019-05-02T01:12:49.915Z,78.30
2019-05-02T01:15:20.380Z,78.10
2019-05-02T01:17:50.607Z,77.80
2019-05-02T01:20:25.666Z,78.00
2019-05-02T01:22:53.671Z,77.70
2019-05-02T01:25:23.811Z,77.90
2019-05-02T01:28:12.658Z,78.30
2019-05-02T01:30:43.940Z,78.20
2019-05-02T01:33:18.482Z,78.30
2019-05-02T01:35:55.821Z,78.20
2019-05-02T01:38:33.788Z,77.90
2019-05-02T01:41:03.788Z,78.30
2019-05-02T01:43:33.985Z,77.70
2019-05-02T01:46:04.661Z,77.80
2019-05-02T01:48:34.604Z,77.90
2019-05-02T01:51:10.201Z,77.50
2019-05-02T01:53:36.702Z,77.60
2019-05-02T01:56:06.954Z,77.70
2019-05-02T01:58:36.762Z,77.90
2019-05-02T02:01:07.072Z,78.00
2019-05-02T02:03:40.432Z,77.40
2019-05-02T02:06:10.141Z,77.60
2019-05-02T02:08:40.330Z,77.40
2019-05-02T02:11:10.266Z,77.30
2019-05-02T02:13:40.497Z,77.30
2019-05-02T02:16:10.685Z,77.20
2019-05-02T02:18:45.355Z,77.70
2019-05-02T02:21:20.248Z,78.20
2019-05-02T02:23:53.390Z,78.20
2019-05-02T02:26:25.270Z,78.40
2019-05-02T02:28:55.529Z,78.60
2019-05-02T02:31:25.528Z,79.20
2019-05-02T02:33:55.623Z,79.50
2019-05-02T02:36:31.519Z,79.70
2019-05-02T02:38:57.315Z,79.80
2019-05-02T02:41:27.534Z,80.00
2019-05-02T02:44:02.899Z,80.40
2019-05-02T02:46:37.782Z,80.60
2019-05-02T02:49:06.981Z,81.00
2019-05-02T02:51:36.962Z,80.80
2019-05-02T02:54:07.601Z,80.90
2019-05-02T02:56:40.774Z,81.10
2019-05-02T02:59:09.357Z,81.50
2019-05-02T03:01:39.287Z,81.70
2019-05-02T03:04:12.087Z,81.60
2019-05-02T03:06:44.798Z,81.90
2019-05-02T03:09:13.203Z,82.40
2019-05-02T03:12:02.213Z,82.10
2019-05-02T03:14:34.503Z,82.30
2019-05-02T03:17:04.718Z,82.20
2019-05-02T03:19:34.812Z,82.20
2019-05-02T03:22:04.990Z,82.60
2019-05-02T03:24:36.817Z,82.70
2019-05-02T03:27:06.710Z,82.60
2019-05-02T03:29:43.832Z,83.30
2019-05-02T03:32:16.982Z,83.20
2019-05-02T03:34:53.041Z,83.50
2019-05-02T03:37:13.942Z,83.80
2019-05-02T03:39:49.592Z,83.60
2019-05-02T03:42:15.912Z,83.40
2019-05-02T03:44:54.911Z,83.30
2019-05-02T03:47:18.195Z,83.00
2019-05-02T03:49:51.773Z,83.00
2019-05-02T03:52:20.394Z,83.10
2019-05-02T03:54:52.491Z,83.10
2019-05-02T03:57:32.455Z,82.30
2019-05-02T03:59:54.061Z,82.40
2019-05-02T04:02:25.552Z,82.60
2019-05-02T04:05:00.405Z,82.60
2019-05-02T04:07:39.712Z,82.90
2019-05-02T04:10:02.123Z,82.70
2019-05-02T04:12:37.353Z,83.20
2019-05-02T04:15:11.037Z,83.50
2019-05-02T04:17:41.973Z,83.30
2019-05-02T04:20:12.791Z,83.50
2019-05-02T04:22:49.113Z,83.70
2019-05-02T04:25:15.420Z,83.80
2019-05-02T04:27:46.249Z,83.40
2019-05-02T04:30:16.271Z,83.40
2019-05-02T04:32:49.611Z,83.00
2019-05-02T04:35:18.406Z,82.80
2019-05-02T04:37:48.244Z,82.80
2019-05-02T04:40:20.429Z,82.70
2019-05-02T04:43:02.056Z,83.00
2019-05-02T04:45:29.536Z,83.30
2019-05-02T04:48:00.813Z,83.00
2019-05-02T04:50:29.486Z,82.80
2019-05-02T04:52:59.239Z,83.20
2019-05-02T04:55:33.205Z,83.40
2019-05-02T04:58:01.829Z,84.00
2019-05-02T05:00:32.222Z,84.10
2019-05-02T05:03:07.207Z,84.30
2019-05-02T05:05:34.332Z,84.50
2019-05-02T05:08:04.301Z,84.80
2019-05-02T05:10:40.184Z,84.90
2019-05-02T05:13:07.753Z,84.90
2019-05-02T05:15:46.567Z,85.20
2019-05-02T05:18:14.437Z,85.00
2019-05-02T05:20:45.950Z,85.70
2019-05-02T05:23:18.272Z,85.20
2019-05-02T05:25:50.762Z,85.00
2019-05-02T05:28:20.631Z,84.10
2019-05-02T05:30:52.161Z,83.90
2019-05-02T05:33:22.493Z,83.80
2019-05-02T05:35:52.823Z,83.90
2019-05-02T05:38:27.848Z,83.90
2019-05-02T05:40:54.975Z,84.30
2019-05-02T05:43:24.875Z,83.30
2019-05-02T05:46:06.100Z,83.00
2019-05-02T05:48:27.440Z,82.90
2019-05-02T05:51:00.392Z,82.40
2019-05-02T05:53:30.932Z,81.80
2019-05-02T05:56:02.469Z,81.40
2019-05-02T05:58:34.394Z,81.00
2019-05-02T06:01:09.330Z,80.70
2019-05-02T06:03:41.902Z,81.10
2019-05-02T06:06:10.289Z,81.30
2019-05-02T06:08:40.873Z,81.00
2019-05-02T06:11:14.948Z,80.30
2019-05-02T06:13:48.480Z,79.60
2019-05-02T06:16:16.553Z,79.70
2019-05-02T06:18:46.858Z,78.70
2019-05-02T06:21:17.158Z,78.80
2019-05-02T06:23:47.546Z,78.40
2019-05-02T06:26:17.453Z,78.20
2019-05-02T06:28:47.643Z,79.10
2019-05-02T06:31:17.819Z,78.20
2019-05-02T06:33:48.674Z,77.90
2019-05-02T06:36:19.861Z,77.50
2019-05-02T06:38:52.233Z,77.30
2019-05-02T06:41:22.315Z,76.70
2019-05-02T06:43:52.498Z,76.70
2019-05-02T06:46:27.726Z,77.30
2019-05-02T06:48:54.377Z,76.30
2019-05-02T06:51:24.583Z,76.00
2019-05-02T06:53:54.684Z,76.00
2019-05-02T06:56:24.597Z,75.20
2019-05-02T06:58:54.609Z,73.10
2019-05-02T07:01:25.771Z,70.90
2019-05-02T07:03:56.924Z,69.20
2019-05-02T07:06:26.853Z,69.20
2019-05-02T07:08:59.683Z,68.80
2019-05-02T07:11:33.141Z,68.20
2019-05-02T07:14:12.428Z,67.80
2019-05-02T07:16:54.549Z,67.70
2019-05-02T07:19:27.195Z,67.30
2019-05-02T07:22:03.997Z,66.80
2019-05-02T07:24:32.704Z,65.20
2019-05-02T07:27:03.059Z,65.50
2019-05-02T07:29:33.282Z,64.00
2019-05-02T07:32:03.453Z,63.40
2019-05-02T07:34:33.742Z,63.20
2019-05-02T07:37:08.433Z,63.40
2019-05-02T07:39:36.073Z,63.90
2019-05-02T07:42:08.000Z,63.70
2019-05-02T07:44:38.340Z,63.20
2019-05-02T07:47:08.652Z,63.50
2019-05-02T07:49:38.939Z,63.20
2019-05-02T07:52:08.884Z,63.10
2019-05-02T07:54:39.094Z,64.60
2019-05-02T07:57:09.181Z,64.10
2019-05-02T07:59:39.432Z,63.30
2019-05-02T08:02:09.679Z,62.90
2019-05-02T08:04:43.599Z,61.70
2019-05-02T08:07:16.195Z,60.80
2019-05-02T08:09:47.420Z,61.50
2019-05-02T08:12:17.755Z,59.40
2019-05-02T08:14:47.930Z,59.80
2019-05-02T08:17:19.276Z,58.90
2019-05-02T08:19:49.540Z,58.80
2019-05-02T08:22:19.449Z,59.80
2019-05-02T08:24:49.560Z,59.80
2019-05-02T08:27:23.036Z,59.40
2019-05-02T08:29:53.653Z,59.90
2019-05-02T08:32:23.814Z,59.90
2019-05-02T08:34:54.884Z,60.50
2019-05-02T08:37:25.038Z,60.80
2019-05-02T08:39:54.912Z,61.20
2019-05-02T08:42:27.668Z,59.80
2019-05-02T08:45:00.984Z,60.10
2019-05-02T08:47:30.496Z,60.50
2019-05-02T08:50:00.991Z,58.90
2019-05-02T08:52:31.327Z,58.20
2019-05-02T08:55:04.473Z,58.00
2019-05-02T08:57:34.653Z,56.90
2019-05-02T09:00:07.055Z,55.90
2019-05-02T09:02:41.492Z,56.10
2019-05-02T09:05:10.193Z,54.70
2019-05-02T09:07:42.950Z,53.70
2019-05-02T09:10:13.596Z,54.70
2019-05-02T09:12:45.558Z,55.00
2019-05-02T09:15:16.962Z,55.10
2019-05-02T09:17:52.730Z,55.60
2019-05-02T09:20:20.766Z,54.00
2019-05-02T09:22:52.085Z,53.00
2019-05-02T09:25:22.287Z,53.40
2019-05-02T09:27:53.153Z,53.80
2019-05-02T09:30:25.835Z,51.70
2019-05-02T09:32:57.035Z,52.40
2019-05-02T09:35:26.954Z,51.90
2019-05-02T09:37:56.947Z,51.00
2019-05-02T09:40:26.922Z,51.30
2019-05-02T09:43:01.769Z,49.20
2019-05-02T09:45:33.381Z,48.50
2019-05-02T09:48:07.614Z,47.10
2019-05-02T09:50:35.508Z,47.10
2019-05-02T09:53:06.127Z,48.30
2019-05-02T09:55:36.361Z,46.40
2019-05-02T09:58:10.401Z,45.20
2019-05-02T10:00:41.820Z,44.60
2019-05-02T10:03:12.559Z,47.30
2019-05-02T10:05:43.180Z,46.90
2019-05-02T10:08:13.977Z,47.00
2019-05-02T10:10:45.771Z,46.10
2019-05-02T10:13:16.168Z,44.30
2019-05-02T10:15:46.722Z,45.40
2019-05-02T10:18:19.733Z,44.30
2019-05-02T10:20:48.599Z,45.60
2019-05-02T10:23:20.738Z,44.10
2019-05-02T10:25:51.977Z,44.30
2019-05-02T10:28:25.772Z,46.00
2019-05-02T10:30:56.851Z,45.80
2019-05-02T10:33:27.862Z,43.40
2019-05-02T10:35:59.491Z,45.20
2019-05-02T10:38:29.765Z,42.80
2019-05-02T10:41:04.089Z,43.00
2019-05-02T10:43:32.939Z,43.30
2019-05-02T10:46:04.976Z,41.80
2019-05-02T10:48:36.772Z,41.90
2019-05-02T10:51:26.586Z,40.90
2019-05-02T10:53:56.803Z,40.30
2019-05-02T10:56:28.215Z,41.70
2019-05-02T10:58:58.510Z,37.90
2019-05-02T11:01:32.270Z,40.90
2019-05-02T11:04:04.221Z,42.30
2019-05-02T11:06:37.138Z,42.70
2019-05-02T11:09:09.056Z,40.80
2019-05-02T11:11:39.694Z,40.30
2019-05-02T11:14:14.546Z,42.10
2019-05-02T11:16:49.332Z,39.20
2019-05-02T11:19:33.234Z,37.80
2019-05-02T11:22:03.577Z,39.70
2019-05-02T11:24:34.813Z,39.80
2019-05-02T11:27:08.139Z,38.80
2019-05-02T11:29:36.967Z,39.70
2019-05-02T11:32:07.858Z,38.30
2019-05-02T11:34:37.992Z,38.00
2019-05-02T11:37:08.343Z,37.60
2019-05-02T11:39:46.697Z,38.80
2019-05-02T11:42:12.383Z,40.10
2019-05-02T11:44:42.740Z,39.40
2019-05-02T11:47:17.178Z,39.10
2019-05-02T11:49:46.891Z,39.60
2019-05-02T11:52:16.995Z,38.10
2019-05-02T11:54:48.618Z,38.30
2019-05-02T11:57:21.082Z,37.50
2019-05-02T11:59:52.071Z,38.40
2019-05-02T12:02:37.220Z,40.10
2019-05-02T12:05:10.254Z,39.60
2019-05-02T12:07:41.789Z,41.20
2019-05-02T12:10:12.606Z,39.20
2019-05-02T12:12:44.962Z,39.10
2019-05-02T12:15:15.324Z,39.80
2019-05-02T12:17:45.477Z,38.50
2019-05-02T12:20:15.943Z,39.10
2019-05-02T12:22:46.265Z,37.80
2019-05-02T12:25:16.575Z,37.20
2019-05-02T12:27:46.762Z,38.80
2019-05-02T12:30:17.044Z,36.90
2019-05-02T12:32:49.030Z,36.00
2019-05-02T12:35:18.998Z,37.30
2019-05-02T12:37:52.367Z,35.70
2019-05-02T12:40:21.711Z,35.10
2019-05-02T12:42:53.058Z,34.10
2019-05-02T12:45:23.312Z,34.70
2019-05-02T12:47:53.499Z,35.40
2019-05-02T12:50:23.454Z,35.50
2019-05-02T12:52:55.680Z,33.70
2019-05-02T12:55:25.538Z,35.60
2019-05-02T12:57:55.921Z,37.80
2019-05-02T13:00:26.315Z,40.40
2019-05-02T13:02:59.129Z,38.60
2019-05-02T13:05:31.677Z,39.00
2019-05-02T13:08:02.516Z,39.10
2019-05-02T13:10:36.998Z,40.10
2019-05-02T13:13:08.038Z,39.70
2019-05-02T13:15:38.592Z,39.50
2019-05-02T13:18:08.892Z,38.60
2019-05-02T13:20:41.656Z,37.50
2019-05-02T13:23:27.197Z,38.00
2019-05-02T13:25:56.091Z,34.70
2019-05-02T13:28:26.526Z,34.00
2019-05-02T13:31:13.164Z,35.30
2019-05-02T13:34:01.953Z,34.00
2019-05-02T13:36:45.559Z,33.40
2019-05-02T13:39:22.018Z,33.70
2019-05-02T13:41:52.374Z,32.40
2019-05-02T13:44:24.161Z,30.20
2019-05-02T13:46:54.992Z,32.10
2019-05-02T13:49:26.393Z,33.00
2019-05-02T13:51:56.598Z,30.60
2019-05-02T13:54:34.639Z,29.50
2019-05-02T13:57:05.209Z,30.00
2019-05-02T13:59:35.311Z,31.00
2019-05-02T14:02:07.481Z,31.30
2019-05-02T14:04:37.344Z,31.20
2019-05-02T14:07:07.691Z,31.10
2019-05-02T14:09:44.078Z,32.00
2019-05-02T14:12:16.891Z,33.30
2019-05-02T14:14:47.170Z,34.90
2019-05-02T14:17:17.462Z,33.50
2019-05-02T14:19:47.950Z,33.40
2019-05-02T14:22:18.364Z,32.70
2019-05-02T14:24:48.611Z,32.70
2019-05-02T14:27:18.791Z,33.00
2019-05-02T14:29:48.994Z,33.10
2019-05-02T14:32:23.310Z,32.60
2019-05-02T14:34:55.651Z,33.00
2019-05-02T14:37:27.484Z,32.40
2019-05-02T14:39:59.451Z,33.20
2019-05-02T14:42:29.798Z,33.30
2019-05-02T14:45:08.463Z,35.20
2019-05-02T14:47:33.612Z,35.60
2019-05-02T14:50:20.489Z,35.20
2019-05-02T14:52:44.007Z,35.30
2019-05-02T14:55:16.957Z,35.90
2019-05-02T14:57:45.114Z,36.10
2019-05-02T15:00:17.061Z,37.30
2019-05-02T15:02:49.228Z,39.90
2019-05-02T15:05:28.363Z,42.00
2019-05-02T15:07:51.860Z,41.50
2019-05-02T15:10:22.793Z,41.60
2019-05-02T15:12:59.682Z,42.00
2019-05-02T15:15:27.975Z,42.30
2019-05-02T15:17:58.177Z,43.00
2019-05-02T15:20:38.604Z,43.10
2019-05-02T15:23:02.357Z,43.40
2019-05-02T15:25:32.306Z,43.20
2019-05-02T15:28:02.582Z,43.20
2019-05-02T15:30:36.960Z,43.50
2019-05-02T15:33:17.180Z,43.40
2019-05-02T15:35:52.567Z,43.70
2019-05-02T15:38:27.863Z,44.40
2019-05-02T15:40:59.154Z,45.00
2019-05-02T15:43:28.299Z,45.90
2019-05-02T15:45:58.506Z,47.00
2019-05-02T15:48:28.612Z,48.30
2019-05-02T15:51:00.156Z,48.90
2019-05-02T15:53:32.594Z,49.70
2019-05-02T15:56:02.935Z,50.10
2019-05-02T15:58:33.165Z,50.20
2019-05-02T16:01:18.128Z,50.40
2019-05-02T16:03:53.508Z,50.40
2019-05-02T16:06:30.502Z,51.00
2019-05-02T16:08:55.574Z,50.70
2019-05-02T16:11:25.505Z,50.60
2019-05-02T16:13:56.318Z,51.00
2019-05-02T16:16:27.858Z,51.10
2019-05-02T16:18:58.235Z,51.10
2019-05-02T16:21:32.717Z,51.40
2019-05-02T16:24:22.866Z,51.80
2019-05-02T16:26:57.107Z,52.40
2019-05-02T16:29:28.779Z,53.30
2019-05-02T16:32:10.192Z,53.00
2019-05-02T16:34:54.846Z,53.20
2019-05-02T16:37:25.619Z,54.40
2019-05-02T16:39:56.332Z,54.70
2019-05-02T16:42:26.471Z,56.00
2019-05-02T16:44:57.001Z,55.80
2019-05-02T16:47:27.448Z,56.30
2019-05-02T16:49:57.832Z,56.40
2019-05-02T16:52:32.686Z,56.10
2019-05-02T16:55:03.516Z,56.80
2019-05-02T16:57:36.937Z,57.20
2019-05-02T17:00:13.488Z,57.60
2019-05-02T17:02:46.363Z,57.80
2019-05-02T17:05:18.306Z,58.10
2019-05-02T17:07:50.316Z,58.30
2019-05-02T17:10:24.943Z,58.90
2019-05-02T17:12:57.652Z,59.30
2019-05-02T17:15:31.173Z,59.90
2019-05-02T17:18:04.980Z,59.70
2019-05-02T17:20:33.242Z,59.90
2019-05-02T17:23:07.547Z,60.40
2019-05-02T17:25:36.833Z,61.10
2019-05-02T17:28:10.582Z,61.20
2019-05-02T17:30:40.734Z,62.00
2019-05-02T17:33:14.325Z,62.70
2019-05-02T17:35:49.444Z,63.00
2019-05-02T17:38:19.219Z,63.50
2019-05-02T17:40:47.011Z,64.00
2019-05-02T17:43:18.107Z,64.50
2019-05-02T17:45:48.685Z,65.40
2019-05-02T17:48:18.936Z,65.90
2019-05-02T17:51:09.077Z,66.50
2019-05-02T17:53:42.753Z,66.20
2019-05-02T17:56:20.308Z,66.70
2019-05-02T17:58:52.865Z,67.30
2019-05-02T18:01:18.010Z,68.20
2019-05-02T18:03:48.402Z,68.40
2019-05-02T18:06:30.748Z,68.80
2019-05-02T18:08:55.016Z,69.40
2019-05-02T18:11:22.737Z,69.40
2019-05-02T18:13:53.745Z,70.50
2019-05-02T18:16:24.951Z,70.60
2019-05-02T18:18:55.472Z,71.00
2019-05-02T18:21:28.649Z,71.20
2019-05-02T18:24:04.438Z,71.10
2019-05-02T18:26:31.832Z,71.50
2019-05-02T18:29:06.681Z,71.40
2019-05-02T18:31:47.165Z,71.50
2019-05-02T18:34:14.311Z,71.50
2019-05-02T18:36:43.674Z,71.80
2019-05-02T18:39:14.167Z,71.70
2019-05-02T18:41:46.387Z,71.70
2019-05-02T18:44:18.685Z,71.50
2019-05-02T18:46:48.299Z,71.70
2019-05-02T18:49:21.936Z,71.80
2019-05-02T18:51:53.926Z,71.50
2019-05-02T18:54:22.206Z,71.80
2019-05-02T18:56:55.357Z,71.80
2019-05-02T18:59:27.051Z,71.80
2019-05-02T19:01:59.362Z,72.00
2019-05-02T19:04:34.888Z,71.90
2019-05-02T19:07:00.366Z,72.10
2019-05-02T19:09:33.125Z,72.50
2019-05-02T19:12:05.913Z,73.00
2019-05-02T19:14:34.614Z,73.20
2019-05-02T19:17:07.262Z,73.60
2019-05-02T19:19:37.829Z,73.90
2019-05-02T19:22:13.220Z,74.20
2019-05-02T19:24:41.571Z,74.40
2019-05-02T19:27:13.349Z,74.50
2019-05-02T19:29:48.152Z,74.90
2019-05-02T19:32:17.051Z,74.80
2019-05-02T19:34:47.827Z,74.70
2019-05-02T19:37:18.711Z,74.80
2019-05-02T19:39:49.360Z,74.80
2019-05-02T19:42:22.539Z,75.00
2019-05-02T19:44:52.785Z,75.00
2019-05-02T19:47:22.926Z,75.60
2019-05-02T19:49:54.396Z,75.70
2019-05-02T19:52:28.568Z,76.50
2019-05-02T19:54:58.941Z,76.90
2019-05-02T19:57:28.766Z,77.70
2019-05-02T20:00:02.731Z,78.20
2019-05-02T20:02:37.377Z,78.90
2019-05-02T20:05:06.458Z,79.20
2019-05-02T20:07:56.199Z,79.80
2019-05-02T20:10:31.604Z,80.40
2019-05-02T20:13:28.276Z,80.80
2019-05-02T20:15:57.045Z,81.10
2019-05-02T20:18:47.653Z,81.80
2019-05-02T20:21:27.595Z,81.80
2019-05-02T20:24:01.365Z,81.40
2019-05-02T20:26:32.548Z,81.60
2019-05-02T20:29:02.994Z,81.90
2019-05-02T20:31:33.360Z,81.90
2019-05-02T20:34:04.149Z,81.80
2019-05-02T20:36:34.581Z,82.00
2019-05-02T20:39:08.042Z,82.80
2019-05-02T20:41:38.575Z,82.60
2019-05-02T20:44:08.873Z,82.80
2019-05-02T20:46:39.141Z,83.30
2019-05-02T20:49:09.310Z,83.30
2019-05-02T20:51:39.440Z,82.80
2019-05-02T20:54:09.804Z,83.10
2019-05-02T20:56:40.099Z,83.70
2019-05-02T20:59:12.548Z,83.40
2019-05-02T21:01:43.000Z,83.40
2019-05-02T21:04:13.289Z,83.70
2019-05-02T21:06:52.660Z,83.50
2019-05-02T21:09:27.615Z,84.10
2019-05-02T21:12:02.249Z,84.10
2019-05-02T21:14:32.616Z,84.20
2019-05-02T21:17:02.986Z,84.20
2019-05-02T21:19:38.335Z,84.80
2019-05-02T21:22:17.550Z,85.10
2019-05-02T21:24:47.953Z,84.80
2019-05-02T21:27:18.363Z,84.70
2019-05-02T21:29:48.346Z,84.40
2019-05-02T21:32:18.725Z,84.90
2019-05-02T21:34:49.096Z,85.10
2019-05-02T21:37:19.213Z,85.30
2019-05-02T21:39:49.101Z,85.40
2019-05-02T21:42:19.310Z,85.30
2019-05-02T21:44:51.773Z,85.40
2019-05-02T21:47:22.617Z,85.20
2019-05-02T21:50:03.572Z,85.30
2019-05-02T21:52:35.551Z,85.20
2019-05-02T21:55:17.605Z,85.20
2019-05-02T21:57:47.732Z,85.40
2019-05-02T22:00:28.340Z,85.00
2019-05-02T22:03:01.913Z,85.20
2019-05-02T22:05:32.196Z,84.80
2019-05-02T22:08:02.957Z,85.00
2019-05-02T22:10:33.263Z,84.60
2019-05-02T22:13:03.611Z,84.40
2019-05-02T22:15:34.682Z,84.50
2019-05-02T22:18:04.773Z,84.40
2019-05-02T22:20:34.754Z,84.90
2019-05-02T22:23:04.975Z,83.70
2019-05-02T22:25:35.007Z,83.40
2019-05-02T22:28:05.332Z,83.00
2019-05-02T22:30:35.297Z,83.10
2019-05-02T22:33:05.572Z,82.70
2019-05-02T22:35:35.860Z,83.00
2019-05-02T22:38:07.720Z,82.80
2019-05-02T22:40:37.836Z,82.70
2019-05-02T22:43:08.120Z,83.00
2019-05-02T22:45:38.260Z,83.20
2019-05-02T22:48:08.550Z,83.30
2019-05-02T22:50:38.723Z,84.00
2019-05-02T22:53:08.922Z,83.60
2019-05-02T22:55:39.129Z,83.70
2019-05-02T22:58:09.057Z,83.60
2019-05-02T23:00:39.371Z,83.90
2019-05-02T23:03:09.591Z,83.70
2019-05-02T23:05:42.008Z,83.70
2019-05-02T23:08:12.596Z,83.40
2019-05-02T23:11:03.526Z,83.30
2019-05-02T23:13:33.906Z,83.20
2019-05-02T23:16:04.130Z,83.30
2019-05-02T23:18:34.332Z,83.40
2019-05-02T23:21:04.787Z,83.50
2019-05-02T23:23:34.728Z,83.50
2019-05-02T23:26:09.654Z,83.50
2019-05-02T23:28:51.721Z,83.40
2019-05-02T23:31:22.563Z,83.20
2019-05-02T23:33:58.296Z,83.50
2019-05-02T23:36:29.707Z,83.40
2019-05-02T23:39:01.864Z,83.70
2019-05-02T23:41:33.799Z,83.50
2019-05-02T23:44:03.802Z,84.10
2019-05-02T23:46:34.027Z,84.00
2019-05-02T23:49:04.363Z,83.80
2019-05-02T23:51:34.540Z,83.50
2019-05-02T23:54:04.894Z,83.90
2019-05-02T23:56:35.062Z,83.40
2019-05-02T23:59:05.474Z,83.30
